Airfield :







YOU CAN JOIN US ON...

 
LOGIN :

Register | Disclaimer

   EN    FR    IT 

 









Legend :    VFR   Marginal VFR   IFR   Intensive IFR   Very Intensive IFR
Visi :
Ceiling :
>= 8 km
>= 3000ft
5 to 8 km
1000 to 3000 ft
1500m to 5 km
500 to 1000 ft
800 to 1500m
200 to 500 ft
< 800m
< 200 ft
Symbols :   Thunderstorms  Fog  Heavy snow  Heavy precipitations  Wind > 20 kt






- Airport Elevation : 141 ft
- IATA code : YQI


CYQI - Yarmouth

CURRENT METAR :
  • 010500Z 03006KT 15SM SCT033 OVC110 00/M03 A2989 RMK SC4AC4 SLP124

EXPIRED METARs :
  • 010400Z 02006KT 15SM OVC032 OVC120 00/M03 A2991 RMK SC8AC1 AC TR SLP131
  • 010300Z 03008KT 15SM OVC033 00/M03 A2992 RMK SC8 SLP135

TAF TAF CYQI
Valid from the 01 at 00:00 until the 01 at 12:00 UTC


312341Z 0100/0112 03012G22KT P6SM OVC020
TEMPO 0100/0112 OVC025 RMK NXT FCST BY 010600Z



MET'MAP, your aeronautical weather chart ! - Copyright ORBIFLY December 2007 - Disclaimer

ORBIFLY MET'MAP TEAM :

Programming & Development : Alexandra Zaïnal
Concept & original design : Baudouin d'Aumeries
Assistance for programming : Marc-Olivier Méhu
Technical & hardware support : Manuel Goepfert

Contact : metmap@orbifly.com




SOURCES & CREDITS :

   NOAA